Air Resources Laboratory banner image
Air Resources Laboratory web site National Oceanic and Atmospheric Administration (NOAA)

md metar


KADW 222256Z COR 16004KT 6SM -RA VCTS SCT033 20/19 A2998 RMK AO2A TSE21 SLP158
 P0010 T01960189 COR 2257=
KAPG 222258Z 06003KT 7SM SCT048 BKN060 18/18 A3000 RMK AO2A LTG DSNT S-SW
 RAB21E55 SLP162 P0000 T01830179 $=
KBWI 222254Z 00000KT 7SM FEW006 OVC011 19/19 A2999 RMK AO2 LTG DSNT S-W RAE37
 SLP153 P0002 T01940189=
KDMH 222254Z AUTO 21/18 A3000 RMK AO1 SLP159 P0001 T02060183=
KFME 222257Z AUTO 00000KT 4SM BKN007 18/18 A3001 RMK AO1=
KHGR 222253Z 18007KT 10SM SCT026 SCT055 24/20 A2997 RMK AO2 SLP152 T02390200=
KMTN 222245Z 00000KT 7SM SCT005 BKN042 BKN070 OVC120 19/19 A3001=
KNHK 222252Z 16003KT 7SM TS FEW020CB SCT030 BKN100 BKN200 24/21 A2999 RMK AO2
 SLP156 OCNL LTGIC DSNT W TS DSNT W MOV E SVR T1 SET T02390211=
KOXB 222253Z AUTO 19004KT 10SM CLR 19/19 A3000 RMK AO2 SLP157 T01940189=
KSBY 222254Z 22007KT 10SM BKN028 25/21 A2998 RMK AO2 SLP155 T02500211=